sensor_id;sensor_type;location;lat;lon;timestamp;temperature;humidity
68480;DHT22;55469;48.934;12.050;2023-08-17T00:00:22;25.40;88.20
68480;DHT22;55469;48.934;12.050;2023-08-17T00:02:48;25.30;86.00
68480;DHT22;55469;48.934;12.050;2023-08-17T00:05:14;25.20;84.40
68480;DHT22;55469;48.934;12.050;2023-08-17T00:07:40;25.20;85.90
68480;DHT22;55469;48.934;12.050;2023-08-17T00:10:06;25.20;85.40
68480;DHT22;55469;48.934;12.050;2023-08-17T00:12:32;25.00;84.60
68480;DHT22;55469;48.934;12.050;2023-08-17T00:14:57;24.90;85.90
68480;DHT22;55469;48.934;12.050;2023-08-17T00:17:23;24.80;87.10
68480;DHT22;55469;48.934;12.050;2023-08-17T00:19:49;24.90;87.60
68480;DHT22;55469;48.934;12.050;2023-08-17T00:22:15;25.00;87.70
68480;DHT22;55469;48.934;12.050;2023-08-17T00:24:42;24.90;85.70
68480;DHT22;55469;48.934;12.050;2023-08-17T00:27:10;24.90;86.00
68480;DHT22;55469;48.934;12.050;2023-08-17T00:29:36;24.80;86.40
68480;DHT22;55469;48.934;12.050;2023-08-17T00:32:02;24.90;86.50
68480;DHT22;55469;48.934;12.050;2023-08-17T00:34:29;24.90;85.80
68480;DHT22;55469;48.934;12.050;2023-08-17T00:36:54;24.90;87.40
68480;DHT22;55469;48.934;12.050;2023-08-17T00:39:20;25.00;86.00
68480;DHT22;55469;48.934;12.050;2023-08-17T00:41:46;25.00;86.40
68480;DHT22;55469;48.934;12.050;2023-08-17T00:44:12;25.00;87.90
68480;DHT22;55469;48.934;12.050;2023-08-17T00:46:38;24.90;84.40
68480;DHT22;55469;48.934;12.050;2023-08-17T00:49:05;24.80;85.90
68480;DHT22;55469;48.934;12.050;2023-08-17T00:51:31;24.70;86.50
68480;DHT22;55469;48.934;12.050;2023-08-17T00:53:59;24.70;85.80
68480;DHT22;55469;48.934;12.050;2023-08-17T00:56:27;24.60;85.60
68480;DHT22;55469;48.934;12.050;2023-08-17T00:58:53;24.60;86.10
68480;DHT22;55469;48.934;12.050;2023-08-17T01:01:19;24.70;86.40
68480;DHT22;55469;48.934;12.050;2023-08-17T01:03:46;24.60;86.60
68480;DHT22;55469;48.934;12.050;2023-08-17T01:06:11;24.60;86.40
68480;DHT22;55469;48.934;12.050;2023-08-17T01:08:38;24.60;86.60
68480;DHT22;55469;48.934;12.050;2023-08-17T01:14:14;24.50;86.70
68480;DHT22;55469;48.934;12.050;2023-08-17T01:16:58;24.50;85.90
68480;DHT22;55469;48.934;12.050;2023-08-17T01:19:28;24.50;86.70
68480;DHT22;55469;48.934;12.050;2023-08-17T01:22:04;24.60;86.30
68480;DHT22;55469;48.934;12.050;2023-08-17T01:24:30;24.60;86.70
68480;DHT22;55469;48.934;12.050;2023-08-17T01:26:56;24.60;86.60
68480;DHT22;55469;48.934;12.050;2023-08-17T01:29:22;24.60;87.90
68480;DHT22;55469;48.934;12.050;2023-08-17T01:34:54;24.60;86.20
68480;DHT22;55469;48.934;12.050;2023-08-17T01:37:26;24.60;88.90
68480;DHT22;55469;48.934;12.050;2023-08-17T01:39:56;24.60;87.90
68480;DHT22;55469;48.934;12.050;2023-08-17T01:42:23;24.60;86.10
68480;DHT22;55469;48.934;12.050;2023-08-17T01:44:49;24.60;86.20
68480;DHT22;55469;48.934;12.050;2023-08-17T01:47:16;24.40;86.30
68480;DHT22;55469;48.934;12.050;2023-08-17T01:49:46;24.30;86.80
68480;DHT22;55469;48.934;12.050;2023-08-17T01:52:12;24.40;86.60
68480;DHT22;55469;48.934;12.050;2023-08-17T01:54:38;24.20;86.90
68480;DHT22;55469;48.934;12.050;2023-08-17T01:57:03;24.20;87.40
68480;DHT22;55469;48.934;12.050;2023-08-17T01:59:29;24.30;86.60
68480;DHT22;55469;48.934;12.050;2023-08-17T02:01:55;24.30;86.80
68480;DHT22;55469;48.934;12.050;2023-08-17T02:04:21;24.20;86.90
68480;DHT22;55469;48.934;12.050;2023-08-17T02:06:47;24.20;88.50
68480;DHT22;55469;48.934;12.050;2023-08-17T02:09:12;24.30;86.80
68480;DHT22;55469;48.934;12.050;2023-08-17T02:11:38;24.30;86.70
68480;DHT22;55469;48.934;12.050;2023-08-17T02:14:04;24.20;86.50
68480;DHT22;55469;48.934;12.050;2023-08-17T02:16:30;24.10;87.10
68480;DHT22;55469;48.934;12.050;2023-08-17T02:18:55;24.10;87.40
68480;DHT22;55469;48.934;12.050;2023-08-17T02:21:21;24.10;87.00
68480;DHT22;55469;48.934;12.050;2023-08-17T02:23:47;24.10;86.70
68480;DHT22;55469;48.934;12.050;2023-08-17T02:26:12;23.90;86.80
68480;DHT22;55469;48.934;12.050;2023-08-17T02:28:38;23.80;87.30
68480;DHT22;55469;48.934;12.050;2023-08-17T02:31:04;23.80;87.30
68480;DHT22;55469;48.934;12.050;2023-08-17T02:33:31;23.70;87.00
68480;DHT22;55469;48.934;12.050;2023-08-17T02:35:58;23.80;87.60
68480;DHT22;55469;48.934;12.050;2023-08-17T02:38:24;23.80;87.80
68480;DHT22;55469;48.934;12.050;2023-08-17T02:40:50;23.90;88.10
68480;DHT22;55469;48.934;12.050;2023-08-17T02:43:16;24.00;88.10
68480;DHT22;55469;48.934;12.050;2023-08-17T02:45:41;24.00;88.00
68480;DHT22;55469;48.934;12.050;2023-08-17T02:48:07;24.10;88.50
68480;DHT22;55469;48.934;12.050;2023-08-17T02:50:33;24.10;88.00
68480;DHT22;55469;48.934;12.050;2023-08-17T02:52:59;24.10;88.40
68480;DHT22;55469;48.934;12.050;2023-08-17T02:55:25;24.20;88.20
68480;DHT22;55469;48.934;12.050;2023-08-17T02:57:51;24.20;89.20
68480;DHT22;55469;48.934;12.050;2023-08-17T03:00:16;24.20;88.60
68480;DHT22;55469;48.934;12.050;2023-08-17T03:02:42;24.20;89.00
68480;DHT22;55469;48.934;12.050;2023-08-17T03:05:08;24.20;88.10
68480;DHT22;55469;48.934;12.050;2023-08-17T03:07:33;24.10;86.50
68480;DHT22;55469;48.934;12.050;2023-08-17T03:09:59;24.10;87.80
68480;DHT22;55469;48.934;12.050;2023-08-17T03:12:25;24.00;86.70
68480;DHT22;55469;48.934;12.050;2023-08-17T03:14:50;23.90;87.10
68480;DHT22;55469;48.934;12.050;2023-08-17T03:17:16;23.90;90.20
68480;DHT22;55469;48.934;12.050;2023-08-17T03:19:42;23.90;87.60
68480;DHT22;55469;48.934;12.050;2023-08-17T03:22:08;24.00;87.90
68480;DHT22;55469;48.934;12.050;2023-08-17T03:24:33;23.90;86.60
68480;DHT22;55469;48.934;12.050;2023-08-17T03:26:59;23.70;87.10
68480;DHT22;55469;48.934;12.050;2023-08-17T03:29:25;23.60;88.00
68480;DHT22;55469;48.934;12.050;2023-08-17T03:31:52;23.70;88.60
68480;DHT22;55469;48.934;12.050;2023-08-17T03:34:18;23.80;89.60
68480;DHT22;55469;48.934;12.050;2023-08-17T03:36:43;23.70;87.00
68480;DHT22;55469;48.934;12.050;2023-08-17T03:39:09;23.60;88.20
68480;DHT22;55469;48.934;12.050;2023-08-17T03:41:35;23.60;87.40
68480;DHT22;55469;48.934;12.050;2023-08-17T03:44:03;23.40;87.40
68480;DHT22;55469;48.934;12.050;2023-08-17T03:46:31;23.20;88.20
68480;DHT22;55469;48.934;12.050;2023-08-17T03:48:57;23.20;87.90
68480;DHT22;55469;48.934;12.050;2023-08-17T03:51:22;23.20;88.10
68480;DHT22;55469;48.934;12.050;2023-08-17T03:53:48;23.30;88.70
68480;DHT22;55469;48.934;12.050;2023-08-17T03:56:14;23.40;87.50
68480;DHT22;55469;48.934;12.050;2023-08-17T03:58:41;23.40;89.60
68480;DHT22;55469;48.934;12.050;2023-08-17T04:01:07;23.40;88.00
68480;DHT22;55469;48.934;12.050;2023-08-17T04:03:33;23.30;87.70
68480;DHT22;55469;48.934;12.050;2023-08-17T04:06:05;23.10;88.30
68480;DHT22;55469;48.934;12.050;2023-08-17T04:08:31;23.00;88.70
68480;DHT22;55469;48.934;12.050;2023-08-17T04:10:57;23.10;89.40
68480;DHT22;55469;48.934;12.050;2023-08-17T04:13:23;23.10;88.60
68480;DHT22;55469;48.934;12.050;2023-08-17T04:15:48;23.10;88.60
68480;DHT22;55469;48.934;12.050;2023-08-17T04:18:14;23.20;88.50
68480;DHT22;55469;48.934;12.050;2023-08-17T04:20:40;23.20;89.10
68480;DHT22;55469;48.934;12.050;2023-08-17T04:23:05;23.30;87.90
68480;DHT22;55469;48.934;12.050;2023-08-17T04:25:31;23.30;88.00
68480;DHT22;55469;48.934;12.050;2023-08-17T04:27:57;23.30;87.60
68480;DHT22;55469;48.934;12.050;2023-08-17T04:30:23;23.30;87.90
68480;DHT22;55469;48.934;12.050;2023-08-17T04:32:48;23.30;88.20
68480;DHT22;55469;48.934;12.050;2023-08-17T04:35:18;23.30;87.30
68480;DHT22;55469;48.934;12.050;2023-08-17T04:37:44;23.20;87.30
68480;DHT22;55469;48.934;12.050;2023-08-17T04:40:11;23.10;88.00
68480;DHT22;55469;48.934;12.050;2023-08-17T04:42:36;23.10;87.80
68480;DHT22;55469;48.934;12.050;2023-08-17T04:45:02;23.10;88.10
68480;DHT22;55469;48.934;12.050;2023-08-17T04:47:28;23.10;88.00
68480;DHT22;55469;48.934;12.050;2023-08-17T04:49:54;23.20;87.70
68480;DHT22;55469;48.934;12.050;2023-08-17T04:52:20;23.30;87.60
68480;DHT22;55469;48.934;12.050;2023-08-17T04:54:45;23.40;87.30
68480;DHT22;55469;48.934;12.050;2023-08-17T04:57:11;23.40;87.10
68480;DHT22;55469;48.934;12.050;2023-08-17T04:59:37;23.40;87.30
68480;DHT22;55469;48.934;12.050;2023-08-17T05:02:03;23.40;87.30
68480;DHT22;55469;48.934;12.050;2023-08-17T05:04:30;23.40;86.80
68480;DHT22;55469;48.934;12.050;2023-08-17T05:06:56;23.30;87.10
68480;DHT22;55469;48.934;12.050;2023-08-17T05:09:22;23.30;87.00
68480;DHT22;55469;48.934;12.050;2023-08-17T05:11:48;23.30;87.00
68480;DHT22;55469;48.934;12.050;2023-08-17T05:14:14;23.30;87.00
68480;DHT22;55469;48.934;12.050;2023-08-17T05:16:39;23.30;87.00
68480;DHT22;55469;48.934;12.050;2023-08-17T05:19:05;23.30;87.20
68480;DHT22;55469;48.934;12.050;2023-08-17T05:21:31;23.30;87.10
68480;DHT22;55469;48.934;12.050;2023-08-17T05:23:56;23.30;87.10
68480;DHT22;55469;48.934;12.050;2023-08-17T05:26:22;23.20;87.60
68480;DHT22;55469;48.934;12.050;2023-08-17T05:28:48;23.20;87.40
68480;DHT22;55469;48.934;12.050;2023-08-17T05:31:14;23.20;87.60
68480;DHT22;55469;48.934;12.050;2023-08-17T05:33:39;23.10;88.00
68480;DHT22;55469;48.934;12.050;2023-08-17T05:36:08;23.00;88.70
68480;DHT22;55469;48.934;12.050;2023-08-17T05:38:34;23.00;88.50
68480;DHT22;55469;48.934;12.050;2023-08-17T05:40:59;23.00;88.30
68480;DHT22;55469;48.934;12.050;2023-08-17T05:43:27;23.10;88.10
68480;DHT22;55469;48.934;12.050;2023-08-17T05:45:53;23.20;87.90
68480;DHT22;55469;48.934;12.050;2023-08-17T05:48:19;23.20;87.90
68480;DHT22;55469;48.934;12.050;2023-08-17T05:50:46;23.20;87.90
68480;DHT22;55469;48.934;12.050;2023-08-17T05:53:13;23.20;87.90
68480;DHT22;55469;48.934;12.050;2023-08-17T05:55:38;23.20;88.10
68480;DHT22;55469;48.934;12.050;2023-08-17T05:58:04;23.10;87.90
68480;DHT22;55469;48.934;12.050;2023-08-17T06:00:30;23.10;87.70
68480;DHT22;55469;48.934;12.050;2023-08-17T06:02:55;23.20;87.90
68480;DHT22;55469;48.934;12.050;2023-08-17T06:05:27;23.20;87.90
68480;DHT22;55469;48.934;12.050;2023-08-17T06:07:54;23.20;88.00
68480;DHT22;55469;48.934;12.050;2023-08-17T06:10:24;23.20;88.20
68480;DHT22;55469;48.934;12.050;2023-08-17T06:12:56;23.20;88.40
68480;DHT22;55469;48.934;12.050;2023-08-17T06:15:23;23.10;88.50
68480;DHT22;55469;48.934;12.050;2023-08-17T06:17:49;23.20;88.00
68480;DHT22;55469;48.934;12.050;2023-08-17T06:20:18;23.20;87.90
68480;DHT22;55469;48.934;12.050;2023-08-17T06:22:44;23.20;88.30
68480;DHT22;55469;48.934;12.050;2023-08-17T06:25:10;23.20;88.40
68480;DHT22;55469;48.934;12.050;2023-08-17T06:27:36;23.30;88.00
68480;DHT22;55469;48.934;12.050;2023-08-17T06:30:03;23.30;88.00
68480;DHT22;55469;48.934;12.050;2023-08-17T06:32:30;23.20;88.10
68480;DHT22;55469;48.934;12.050;2023-08-17T06:34:56;23.20;88.40
68480;DHT22;55469;48.934;12.050;2023-08-17T06:37:22;23.30;88.10
68480;DHT22;55469;48.934;12.050;2023-08-17T06:39:48;23.30;88.00
68480;DHT22;55469;48.934;12.050;2023-08-17T06:42:14;23.30;88.40
68480;DHT22;55469;48.934;12.050;2023-08-17T06:44:39;23.30;88.00
68480;DHT22;55469;48.934;12.050;2023-08-17T06:47:05;23.30;88.10
68480;DHT22;55469;48.934;12.050;2023-08-17T06:49:31;23.30;88.40
68480;DHT22;55469;48.934;12.050;2023-08-17T06:51:57;23.30;88.50
68480;DHT22;55469;48.934;12.050;2023-08-17T06:54:23;23.30;88.40
68480;DHT22;55469;48.934;12.050;2023-08-17T06:56:49;23.30;88.20
68480;DHT22;55469;48.934;12.050;2023-08-17T06:59:14;23.30;88.90
68480;DHT22;55469;48.934;12.050;2023-08-17T07:01:40;23.30;88.70
68480;DHT22;55469;48.934;12.050;2023-08-17T07:04:06;23.30;88.70
68480;DHT22;55469;48.934;12.050;2023-08-17T07:06:31;23.30;88.70
68480;DHT22;55469;48.934;12.050;2023-08-17T07:08:57;23.40;88.80
68480;DHT22;55469;48.934;12.050;2023-08-17T07:11:23;23.30;88.40
68480;DHT22;55469;48.934;12.050;2023-08-17T07:13:49;23.40;88.20
68480;DHT22;55469;48.934;12.050;2023-08-17T07:16:15;23.40;88.40
68480;DHT22;55469;48.934;12.050;2023-08-17T07:18:41;23.40;88.30
68480;DHT22;55469;48.934;12.050;2023-08-17T07:21:06;23.40;89.00
68480;DHT22;55469;48.934;12.050;2023-08-17T07:23:32;23.40;88.00
68480;DHT22;55469;48.934;12.050;2023-08-17T07:25:58;23.40;88.70
68480;DHT22;55469;48.934;12.050;2023-08-17T07:28:23;23.40;88.40
68480;DHT22;55469;48.934;12.050;2023-08-17T07:30:49;23.40;88.20
68480;DHT22;55469;48.934;12.050;2023-08-17T07:33:15;23.40;88.10
68480;DHT22;55469;48.934;12.050;2023-08-17T07:35:40;23.50;88.10
68480;DHT22;55469;48.934;12.050;2023-08-17T07:38:06;23.50;88.10
68480;DHT22;55469;48.934;12.050;2023-08-17T07:40:32;23.50;88.10
68480;DHT22;55469;48.934;12.050;2023-08-17T07:42:58;23.50;88.10
68480;DHT22;55469;48.934;12.050;2023-08-17T07:45:23;23.50;88.00
68480;DHT22;55469;48.934;12.050;2023-08-17T07:47:49;23.50;88.10
68480;DHT22;55469;48.934;12.050;2023-08-17T07:50:15;23.50;87.90
68480;DHT22;55469;48.934;12.050;2023-08-17T07:52:40;23.50;87.40
68480;DHT22;55469;48.934;12.050;2023-08-17T07:55:06;23.60;87.10
68480;DHT22;55469;48.934;12.050;2023-08-17T07:57:32;23.60;87.10
68480;DHT22;55469;48.934;12.050;2023-08-17T07:59:58;23.60;87.40
68480;DHT22;55469;48.934;12.050;2023-08-17T08:02:24;23.60;88.10
68480;DHT22;55469;48.934;12.050;2023-08-17T08:04:49;23.60;87.70
68480;DHT22;55469;48.934;12.050;2023-08-17T08:07:15;23.60;87.60
68480;DHT22;55469;48.934;12.050;2023-08-17T08:09:41;23.70;87.60
68480;DHT22;55469;48.934;12.050;2023-08-17T08:12:06;23.60;87.40
68480;DHT22;55469;48.934;12.050;2023-08-17T08:14:35;23.70;87.10
68480;DHT22;55469;48.934;12.050;2023-08-17T08:17:01;23.70;86.60
68480;DHT22;55469;48.934;12.050;2023-08-17T08:19:27;23.70;86.90
68480;DHT22;55469;48.934;12.050;2023-08-17T08:21:52;23.70;86.50
68480;DHT22;55469;48.934;12.050;2023-08-17T08:24:18;23.70;86.50
68480;DHT22;55469;48.934;12.050;2023-08-17T08:26:44;23.80;86.40
68480;DHT22;55469;48.934;12.050;2023-08-17T08:29:09;23.80;86.30
68480;DHT22;55469;48.934;12.050;2023-08-17T08:31:35;23.80;86.20
68480;DHT22;55469;48.934;12.050;2023-08-17T08:34:02;23.80;86.20
68480;DHT22;55469;48.934;12.050;2023-08-17T08:36:28;23.80;86.20
68480;DHT22;55469;48.934;12.050;2023-08-17T08:38:53;23.80;86.20
68480;DHT22;55469;48.934;12.050;2023-08-17T08:41:19;23.90;86.10
68480;DHT22;55469;48.934;12.050;2023-08-17T08:43:45;23.90;86.20
68480;DHT22;55469;48.934;12.050;2023-08-17T08:46:11;23.90;86.20
68480;DHT22;55469;48.934;12.050;2023-08-17T08:48:39;23.90;86.20
68480;DHT22;55469;48.934;12.050;2023-08-17T08:51:08;24.00;86.20
68480;DHT22;55469;48.934;12.050;2023-08-17T08:53:44;24.00;87.50
68480;DHT22;55469;48.934;12.050;2023-08-17T08:56:11;24.00;86.30
68480;DHT22;55469;48.934;12.050;2023-08-17T08:58:42;24.00;87.10
68480;DHT22;55469;48.934;12.050;2023-08-17T09:01:10;24.10;86.10
68480;DHT22;55469;48.934;12.050;2023-08-17T09:03:37;24.10;86.10
68480;DHT22;55469;48.934;12.050;2023-08-17T09:06:03;24.10;86.50
68480;DHT22;55469;48.934;12.050;2023-08-17T09:08:30;24.20;85.90
68480;DHT22;55469;48.934;12.050;2023-08-17T09:10:57;24.20;85.80
68480;DHT22;55469;48.934;12.050;2023-08-17T09:13:23;24.20;85.70
68480;DHT22;55469;48.934;12.050;2023-08-17T09:15:48;24.20;85.70
68480;DHT22;55469;48.934;12.050;2023-08-17T09:18:16;24.30;85.60
68480;DHT22;55469;48.934;12.050;2023-08-17T09:20:45;24.30;85.60
68480;DHT22;55469;48.934;12.050;2023-08-17T09:23:14;24.30;85.60
68480;DHT22;55469;48.934;12.050;2023-08-17T09:25:42;24.30;85.50
68480;DHT22;55469;48.934;12.050;2023-08-17T09:28:11;24.40;85.40
68480;DHT22;55469;48.934;12.050;2023-08-17T09:30:50;24.40;85.20
68480;DHT22;55469;48.934;12.050;2023-08-17T09:33:22;24.40;85.20
68480;DHT22;55469;48.934;12.050;2023-08-17T09:35:50;24.50;85.00
68480;DHT22;55469;48.934;12.050;2023-08-17T09:38:17;24.50;84.80
68480;DHT22;55469;48.934;12.050;2023-08-17T09:40:43;24.60;84.80
68480;DHT22;55469;48.934;12.050;2023-08-17T09:43:09;24.50;84.70
68480;DHT22;55469;48.934;12.050;2023-08-17T09:45:38;24.60;84.60
68480;DHT22;55469;48.934;12.050;2023-08-17T09:48:05;24.60;84.50
68480;DHT22;55469;48.934;12.050;2023-08-17T09:50:33;24.60;84.40
68480;DHT22;55469;48.934;12.050;2023-08-17T09:52:58;24.70;84.30
68480;DHT22;55469;48.934;12.050;2023-08-17T09:55:24;24.70;84.20
68480;DHT22;55469;48.934;12.050;2023-08-17T09:57:51;24.70;84.10
68480;DHT22;55469;48.934;12.050;2023-08-17T10:00:19;24.80;84.10
68480;DHT22;55469;48.934;12.050;2023-08-17T10:02:45;24.80;84.00
68480;DHT22;55469;48.934;12.050;2023-08-17T10:05:18;24.80;83.90
68480;DHT22;55469;48.934;12.050;2023-08-17T10:07:53;24.90;83.90
68480;DHT22;55469;48.934;12.050;2023-08-17T10:10:26;24.90;83.80
68480;DHT22;55469;48.934;12.050;2023-08-17T10:15:38;25.00;83.80
68480;DHT22;55469;48.934;12.050;2023-08-17T10:18:24;25.00;83.70
68480;DHT22;55469;48.934;12.050;2023-08-17T10:21:02;25.00;83.50
68480;DHT22;55469;48.934;12.050;2023-08-17T10:23:31;25.00;83.50
68480;DHT22;55469;48.934;12.050;2023-08-17T10:25:57;25.10;83.40
68480;DHT22;55469;48.934;12.050;2023-08-17T10:28:24;25.20;83.30
68480;DHT22;55469;48.934;12.050;2023-08-17T10:30:51;25.20;83.20
68480;DHT22;55469;48.934;12.050;2023-08-17T10:33:17;25.20;83.30
68480;DHT22;55469;48.934;12.050;2023-08-17T10:35:44;25.20;83.00
68480;DHT22;55469;48.934;12.050;2023-08-17T10:38:11;25.20;83.00
68480;DHT22;55469;48.934;12.050;2023-08-17T10:40:40;25.30;83.00
68480;DHT22;55469;48.934;12.050;2023-08-17T10:43:07;25.30;82.90
68480;DHT22;55469;48.934;12.050;2023-08-17T10:45:34;25.40;82.90
68480;DHT22;55469;48.934;12.050;2023-08-17T10:50:34;25.50;82.60
68480;DHT22;55469;48.934;12.050;2023-08-17T10:53:08;25.50;82.40
68480;DHT22;55469;48.934;12.050;2023-08-17T10:55:44;25.50;82.30
68480;DHT22;55469;48.934;12.050;2023-08-17T10:58:13;25.50;82.20
68480;DHT22;55469;48.934;12.050;2023-08-17T11:00:39;25.50;82.00
68480;DHT22;55469;48.934;12.050;2023-08-17T11:03:08;25.60;81.80
68480;DHT22;55469;48.934;12.050;2023-08-17T11:13:24;25.80;81.40
68480;DHT22;55469;48.934;12.050;2023-08-17T11:15:52;25.80;81.40
68480;DHT22;55469;48.934;12.050;2023-08-17T11:18:18;25.80;81.20
68480;DHT22;55469;48.934;12.050;2023-08-17T11:20:43;25.80;81.20
68480;DHT22;55469;48.934;12.050;2023-08-17T11:23:10;25.80;81.00
68480;DHT22;55469;48.934;12.050;2023-08-17T11:25:37;25.90;81.20
68480;DHT22;55469;48.934;12.050;2023-08-17T11:28:05;26.00;81.10
68480;DHT22;55469;48.934;12.050;2023-08-17T11:30:32;26.00;80.80
68480;DHT22;55469;48.934;12.050;2023-08-17T11:33:00;26.00;80.70
68480;DHT22;55469;48.934;12.050;2023-08-17T11:35:26;26.00;80.50
68480;DHT22;55469;48.934;12.050;2023-08-17T11:37:51;26.10;80.60
68480;DHT22;55469;48.934;12.050;2023-08-17T11:40:17;26.10;80.70
68480;DHT22;55469;48.934;12.050;2023-08-17T11:42:44;26.10;80.30
68480;DHT22;55469;48.934;12.050;2023-08-17T11:45:10;26.10;80.00
68480;DHT22;55469;48.934;12.050;2023-08-17T11:47:41;26.20;80.00
68480;DHT22;55469;48.934;12.050;2023-08-17T11:50:09;26.20;80.00
68480;DHT22;55469;48.934;12.050;2023-08-17T11:52:37;26.30;79.90
68480;DHT22;55469;48.934;12.050;2023-08-17T11:55:06;26.30;80.00
68480;DHT22;55469;48.934;12.050;2023-08-17T11:57:35;26.30;79.90
68480;DHT22;55469;48.934;12.050;2023-08-17T12:00:03;26.40;79.80
68480;DHT22;55469;48.934;12.050;2023-08-17T12:02:31;26.40;79.30
68480;DHT22;55469;48.934;12.050;2023-08-17T12:05:03;26.50;79.50
68480;DHT22;55469;48.934;12.050;2023-08-17T12:07:32;26.40;79.30
68480;DHT22;55469;48.934;12.050;2023-08-17T12:09:57;26.50;79.20
68480;DHT22;55469;48.934;12.050;2023-08-17T12:12:23;26.50;79.00
68480;DHT22;55469;48.934;12.050;2023-08-17T12:14:49;26.60;78.60
68480;DHT22;55469;48.934;12.050;2023-08-17T12:17:16;26.60;78.40
68480;DHT22;55469;48.934;12.050;2023-08-17T12:19:44;26.70;78.70
68480;DHT22;55469;48.934;12.050;2023-08-17T12:22:11;26.70;78.40
68480;DHT22;55469;48.934;12.050;2023-08-17T12:24:38;26.70;78.20
68480;DHT22;55469;48.934;12.050;2023-08-17T12:27:07;26.80;77.90
68480;DHT22;55469;48.934;12.050;2023-08-17T12:29:33;26.80;77.50
68480;DHT22;55469;48.934;12.050;2023-08-17T12:32:01;26.90;77.70
68480;DHT22;55469;48.934;12.050;2023-08-17T12:34:27;26.90;77.70
68480;DHT22;55469;48.934;12.050;2023-08-17T12:36:53;26.90;77.60
68480;DHT22;55469;48.934;12.050;2023-08-17T12:39:19;27.00;77.50
68480;DHT22;55469;48.934;12.050;2023-08-17T12:41:44;27.00;78.60
68480;DHT22;55469;48.934;12.050;2023-08-17T12:44:10;27.00;77.60
68480;DHT22;55469;48.934;12.050;2023-08-17T12:46:39;27.10;77.10
68480;DHT22;55469;48.934;12.050;2023-08-17T12:49:05;27.10;77.30
68480;DHT22;55469;48.934;12.050;2023-08-17T12:51:31;27.10;77.10
68480;DHT22;55469;48.934;12.050;2023-08-17T12:53:58;27.20;77.40
68480;DHT22;55469;48.934;12.050;2023-08-17T12:56:24;27.20;77.30
68480;DHT22;55469;48.934;12.050;2023-08-17T12:58:49;27.20;77.00
68480;DHT22;55469;48.934;12.050;2023-08-17T13:01:15;27.20;77.00
68480;DHT22;55469;48.934;12.050;2023-08-17T13:03:41;27.30;77.10
68480;DHT22;55469;48.934;12.050;2023-08-17T13:06:07;27.30;76.90
68480;DHT22;55469;48.934;12.050;2023-08-17T13:08:33;27.30;78.20
68480;DHT22;55469;48.934;12.050;2023-08-17T13:11:00;27.40;76.80
68480;DHT22;55469;48.934;12.050;2023-08-17T13:13:26;27.40;76.80
68480;DHT22;55469;48.934;12.050;2023-08-17T13:15:52;27.40;76.50
68480;DHT22;55469;48.934;12.050;2023-08-17T13:18:18;27.40;76.90
68480;DHT22;55469;48.934;12.050;2023-08-17T13:20:43;27.50;75.90
68480;DHT22;55469;48.934;12.050;2023-08-17T13:23:10;27.50;76.30
68480;DHT22;55469;48.934;12.050;2023-08-17T13:25:36;27.60;76.20
68480;DHT22;55469;48.934;12.050;2023-08-17T13:28:02;27.60;76.30
68480;DHT22;55469;48.934;12.050;2023-08-17T13:30:28;27.60;75.80
68480;DHT22;55469;48.934;12.050;2023-08-17T13:32:55;27.70;75.70
68480;DHT22;55469;48.934;12.050;2023-08-17T13:35:21;27.70;75.50
68480;DHT22;55469;48.934;12.050;2023-08-17T13:37:53;27.70;76.70
68480;DHT22;55469;48.934;12.050;2023-08-17T13:40:20;27.80;75.40
68480;DHT22;55469;48.934;12.050;2023-08-17T13:42:46;27.80;75.10
68480;DHT22;55469;48.934;12.050;2023-08-17T13:45:12;27.90;74.80
68480;DHT22;55469;48.934;12.050;2023-08-17T13:47:39;27.90;74.80
68480;DHT22;55469;48.934;12.050;2023-08-17T13:50:05;27.90;74.50
68480;DHT22;55469;48.934;12.050;2023-08-17T13:52:31;27.90;74.70
68480;DHT22;55469;48.934;12.050;2023-08-17T13:54:56;27.90;74.90
68480;DHT22;55469;48.934;12.050;2023-08-17T13:57:23;28.00;75.10
68480;DHT22;55469;48.934;12.050;2023-08-17T13:59:49;28.00;74.80
68480;DHT22;55469;48.934;12.050;2023-08-17T14:02:14;28.10;74.20
68480;DHT22;55469;48.934;12.050;2023-08-17T14:04:40;28.10;73.80
68480;DHT22;55469;48.934;12.050;2023-08-17T14:07:06;28.20;74.20
68480;DHT22;55469;48.934;12.050;2023-08-17T14:09:31;28.20;73.90
68480;DHT22;55469;48.934;12.050;2023-08-17T14:11:57;28.30;74.40
68480;DHT22;55469;48.934;12.050;2023-08-17T14:14:23;28.30;73.80
68480;DHT22;55469;48.934;12.050;2023-08-17T14:16:48;28.40;73.90
68480;DHT22;55469;48.934;12.050;2023-08-17T14:19:14;28.40;74.00
68480;DHT22;55469;48.934;12.050;2023-08-17T14:21:40;28.40;74.00
68480;DHT22;55469;48.934;12.050;2023-08-17T14:24:06;28.50;73.70
68480;DHT22;55469;48.934;12.050;2023-08-17T14:26:33;28.50;73.60
68480;DHT22;55469;48.934;12.050;2023-08-17T14:28:59;28.60;73.70
68480;DHT22;55469;48.934;12.050;2023-08-17T14:31:25;28.60;73.50
68480;DHT22;55469;48.934;12.050;2023-08-17T14:33:51;28.60;73.10
68480;DHT22;55469;48.934;12.050;2023-08-17T14:36:16;28.70;73.10
68480;DHT22;55469;48.934;12.050;2023-08-17T14:38:42;28.80;72.80
68480;DHT22;55469;48.934;12.050;2023-08-17T14:41:08;28.80;72.90
68480;DHT22;55469;48.934;12.050;2023-08-17T14:43:34;28.80;72.90
68480;DHT22;55469;48.934;12.050;2023-08-17T14:46:00;28.90;72.90
68480;DHT22;55469;48.934;12.050;2023-08-17T14:48:26;28.90;73.00
68480;DHT22;55469;48.934;12.050;2023-08-17T14:50:52;29.00;72.40
68480;DHT22;55469;48.934;12.050;2023-08-17T14:53:18;29.00;72.50
68480;DHT22;55469;48.934;12.050;2023-08-17T14:55:43;29.00;72.30
68480;DHT22;55469;48.934;12.050;2023-08-17T14:58:09;29.10;72.30
68480;DHT22;55469;48.934;12.050;2023-08-17T15:00:35;29.10;72.30
68480;DHT22;55469;48.934;12.050;2023-08-17T15:03:01;29.20;71.80
68480;DHT22;55469;48.934;12.050;2023-08-17T15:05:27;29.20;71.90
68480;DHT22;55469;48.934;12.050;2023-08-17T15:07:53;29.20;71.60
68480;DHT22;55469;48.934;12.050;2023-08-17T15:10:18;29.30;71.60
68480;DHT22;55469;48.934;12.050;2023-08-17T15:12:44;29.30;71.60
68480;DHT22;55469;48.934;12.050;2023-08-17T15:15:10;29.30;71.40
68480;DHT22;55469;48.934;12.050;2023-08-17T15:17:36;29.40;71.20
68480;DHT22;55469;48.934;12.050;2023-08-17T15:20:03;29.40;71.50
68480;DHT22;55469;48.934;12.050;2023-08-17T15:22:28;29.50;71.10
68480;DHT22;55469;48.934;12.050;2023-08-17T15:24:55;29.50;70.70
68480;DHT22;55469;48.934;12.050;2023-08-17T15:27:21;29.50;70.50
68480;DHT22;55469;48.934;12.050;2023-08-17T15:29:47;29.50;70.60